This is the latest recevied weather packets stored in our database for station/object KB6HGN. If no packets are shown the sender has not sent any weather packets the latest 10 day(s).
| Time | Temp. | Humidity | Pressure | Rain* | Wind** | Luminosity | Snow |
|---|---|---|---|---|---|---|---|
| 1778148904 | 13.89° C | 76% | 1017.3 hPa | 0 mm | - | 0 W/m² | - |
| 1778145905 | 14.44° C | 74% | 1017.6 hPa | 0 mm | - | 0 W/m² | - |
| 1778143206 | 14.44° C | 73% | 1017.9 hPa | 0 mm | - | 0 W/m² | - |
| 1778139904 | 15° C | 70% | 1017.6 hPa | 0 mm | - | 0 W/m² | - |
| 1778137804 | 16.11° C | 68% | 1017.9 hPa | 0 mm | - | 0 W/m² | - |
| 1778136904 | 16.11° C | 67% | 1017.9 hPa | 0 mm | - | 0 W/m² | - |
| 1778134204 | 16.67° C | 65% | 1018 hPa | 0 mm | - | 0 W/m² | - |
| 1778131504 | 17.22° C | 63% | 1017.9 hPa | 0 mm | - | 0 W/m² | - |
| 1778129404 | 17.78° C | 61% | 1017.9 hPa | 0 mm | - | 0 W/m² | - |
| 1778124605 | 20° C | 54% | 1016.9 hPa | 0 mm | - | 0 W/m² | - |
| 1778124004 | 20° C | 54% | 1016.9 hPa | 0 mm | - | 0 W/m² | - |
| 1778121604 | 21.67° C | 48% | 1016.2 hPa | 0 mm | - | 0 W/m² | - |
| 1778120405 | 22.22° C | 47% | 1016.2 hPa | 0 mm | - | 0 W/m² | - |
| 1778117705 | 23.89° C | 41% | 1015.9 hPa | 0 mm | - | 47 W/m² | - |
| 1778117405 | 23.89° C | 41% | 1015.6 hPa | 0 mm | - | 59 W/m² | - |
| 1778116805 | 25° C | 40% | 1015.6 hPa | 0 mm | - | 89 W/m² | - |
| 1778115905 | 25° C | 40% | 1015.5 hPa | 0 mm | - | 141 W/m² | - |
| 1778114705 | 25° C | 39% | 1015.5 hPa | 0 mm | - | 228 W/m² | - |
| 1778114104 | 25.56° C | 38% | 1015.5 hPa | 0 mm | - | 279 W/m² | - |
| 1778112004 | 25.56° C | 34% | 1015.2 hPa | 0 mm | - | 432 W/m² | - |
| 1778110504 | 26.11° C | 34% | 1015.2 hPa | 0 mm | - | 522 W/m² | - |
| 1778108105 | 26.11° C | 34% | 1015.6 hPa | 0 mm | - | 647 W/m² | - |
| 1778107805 | 26.67° C | 33% | 1015.6 hPa | 0 mm | - | 661 W/m² | - |
| 1778106304 | 25.56° C | 37% | 1015.9 hPa | 0 mm | - | 733 W/m² | - |
| 1778106005 | 26.11° C | 33% | 1015.9 hPa | 0 mm | - | 746 W/m² | - |
* Rain latest hour (hover to see other rain measurements)
** Current wind speed in m/s (hover to see current wind gust speed)